Time;durP1;ratioP1;P1;durP2;ratioP2;P2;SDS_P1;SDS_P2;PMS_P1;PMS_P2;Temp;Humidity;BMP_temperature;BMP_pressure;BME280_temperature;BME280_humidity;BME280_pressure;Samples;Min_cycle;Max_cycle;Signal;HPM_P1;HPM_P2
2022/03/11 00:00:04;;;;;;;14.98;8.57;;;;;;;5.87;nan;101733.97;5053099;28;20076;-60
2022/03/11 00:02:30;;;;;;;11.05;7.80;;;;;;;5.89;nan;101724.41;5018598;28;20033;-58
2022/03/11 00:04:55;;;;;;;10.63;8.27;;;;;;;5.49;nan;101642.47;5052791;28;20036;-60
2022/03/11 00:07:20;;;;;;;10.30;8.38;;;;;;;5.97;nan;101722.66;5052742;28;20033;-58
2022/03/11 00:09:46;;;;;;;12.90;8.48;;;;;;;5.97;nan;101731.38;5052879;28;20037;-56
2022/03/11 00:12:11;;;;;;;8.15;7.30;;;;;;;5.93;nan;101727.00;5053262;28;20044;-57
2022/03/11 00:14:37;;;;;;;13.23;8.07;;;;;;;5.96;nan;101733.97;5052734;28;20040;-57
2022/03/11 00:17:03;;;;;;;10.35;8.73;;;;;;;5.56;nan;101665.13;5035249;28;20075;-58
2022/03/11 00:19:29;;;;;;;12.48;8.65;;;;;;;5.92;nan;101730.50;5035020;28;20025;-57
2022/03/11 00:21:55;;;;;;;10.55;8.02;;;;;;;5.57;nan;101669.50;5052458;28;20082;-59
2022/03/11 00:24:21;;;;;;;11.00;8.57;;;;;;;5.52;nan;101692.09;5034462;28;20056;-57
2022/03/11 00:26:47;;;;;;;9.10;8.07;;;;;;;5.77;nan;101729.56;5052395;28;20041;-58
2022/03/11 00:29:12;;;;;;;12.05;7.63;;;;;;;5.36;nan;101645.94;5052027;28;20032;-59
2022/03/11 00:31:37;;;;;;;10.65;7.80;;;;;;;5.75;nan;101715.66;5052404;28;20492;-56
2022/03/11 00:34:03;;;;;;;14.23;8.90;;;;;;;5.54;nan;101686.03;5034486;28;20399;-58
2022/03/11 00:36:28;;;;;;;13.38;9.13;;;;;;;5.41;nan;101654.66;5065892;28;20122;-56
2022/03/11 00:38:53;;;;;;;10.70;8.57;;;;;;;5.35;nan;101646.81;5072547;28;20064;-58
2022/03/11 00:41:19;;;;;;;10.13;7.95;;;;;;;5.67;nan;101702.56;5059085;28;20036;-58
2022/03/11 00:43:44;;;;;;;12.02;8.23;;;;;;;5.21;nan;101646.78;5052227;28;20455;-58
2022/03/11 00:46:10;;;;;;;13.25;8.77;;;;;;;5.12;nan;101636.31;5052358;28;20041;-58
2022/03/11 00:48:35;;;;;;;14.80;8.77;;;;;;;5.59;nan;101707.78;5034376;28;20087;-59
2022/03/11 00:51:00;;;;;;;12.25;7.93;;;;;;;5.60;nan;101716.50;5052225;28;20028;-57
2022/03/11 00:53:27;;;;;;;11.05;8.43;;;;;;;5.51;nan;101693.84;5052232;28;20112;-59
2022/03/11 00:55:53;;;;;;;13.13;8.38;;;;;;;5.46;nan;101692.06;5052311;28;20457;-59
2022/03/11 00:58:19;;;;;;;10.13;8.02;;;;;;;5.17;nan;101650.25;5052233;28;20475;-57
2022/03/11 01:00:44;;;;;;;10.68;8.15;;;;;;;5.32;nan;101671.16;5052124;28;20028;-59
2022/03/11 01:03:09;;;;;;;11.95;7.95;;;;;;;5.39;nan;101688.59;5051838;28;20036;-56
2022/03/11 01:05:35;;;;;;;11.30;8.48;;;;;;;5.41;nan;101680.75;5051751;28;20029;-58
2022/03/11 01:08:00;;;;;;;12.50;9.05;;;;;;;5.38;nan;101681.63;5051983;28;20033;-59
2022/03/11 01:10:25;;;;;;;11.05;8.75;;;;;;;5.34;nan;101677.25;5051887;28;20029;-58
2022/03/11 01:12:51;;;;;;;13.10;9.02;;;;;;;5.41;nan;101685.97;5051285;28;20025;-60
2022/03/11 01:15:16;;;;;;;11.65;9.27;;;;;;;5.41;nan;101670.31;5051572;28;20468;-58
2022/03/11 01:17:42;;;;;;;13.90;9.20;;;;;;;5.45;nan;101666.84;5033874;28;20075;-59
2022/03/11 01:20:10;;;;;;;13.90;9.27;;;;;;;5.42;nan;101651.19;5033945;28;20110;-60
2022/03/11 01:22:36;;;;;;;12.60;8.98;;;;;;;5.48;nan;101643.34;5033382;28;20090;-59
2022/03/11 01:25:02;;;;;;;9.93;8.40;;;;;;;5.33;nan;101615.50;5033806;28;20045;-59
2022/03/11 01:27:28;;;;;;;13.75;9.50;;;;;;;5.16;nan;101574.56;5071353;28;20033;-59
2022/03/11 01:29:53;;;;;;;13.27;9.13;;;;;;;5.64;nan;101663.38;5053761;28;20048;-57
2022/03/11 01:32:19;;;;;;;13.45;8.55;;;;;;;5.70;nan;101655.56;5071516;28;20450;-61
2022/03/11 01:34:44;;;;;;;11.15;8.73;;;;;;;4.57;nan;101452.75;5071191;28;20068;-58
2022/03/11 01:37:09;;;;;;;11.88;8.80;;;;;;;5.60;nan;101640.75;5071356;28;20070;-57
2022/03/11 01:39:35;;;;;;;13.40;9.07;;;;;;;5.42;nan;101625.06;5071861;28;20484;-60
2022/03/11 01:42:00;;;;;;;13.48;8.77;;;;;;;5.43;nan;101634.66;5052561;28;20392;-58
2022/03/11 01:44:25;;;;;;;13.40;9.75;;;;;;;4.97;nan;101563.22;5051597;28;20037;-59
2022/03/11 01:46:51;;;;;;;13.45;8.80;;;;;;;5.01;nan;101562.38;5051604;28;20406;-59
2022/03/11 01:49:16;;;;;;;13.45;9.10;;;;;;;5.00;nan;101548.44;5051390;28;20102;-59
2022/03/11 01:51:43;;;;;;;11.93;8.40;;;;;;;5.36;nan;101625.94;5051474;28;20037;-59
2022/03/11 01:54:09;;;;;;;12.80;8.95;;;;;;;4.90;nan;101541.47;5051610;28;20031;-58
2022/03/11 01:56:35;;;;;;;15.25;9.10;;;;;;;4.88;nan;101545.81;5050555;28;20044;-56
2022/03/11 01:59:01;;;;;;;14.70;9.68;;;;;;;5.26;nan;101602.41;5033785;28;20037;-58
2022/03/11 02:01:26;;;;;;;14.88;9.27;;;;;;;5.28;nan;101621.56;5033886;28;20056;-56
2022/03/11 02:03:52;;;;;;;14.60;9.70;;;;;;;5.10;nan;101586.75;5050123;28;20040;-59
2022/03/11 02:06:18;;;;;;;11.98;9.00;;;;;;;4.95;nan;101549.31;5051629;28;20071;-58
2022/03/11 02:08:44;;;;;;;13.02;9.63;;;;;;;4.87;nan;101538.88;5051625;28;20115;-57
2022/03/11 02:11:13;;;;;;;11.85;9.13;;;;;;;4.80;nan;101537.13;5033779;28;20622;-61
2022/03/11 02:13:46;;;;;;;12.60;9.32;;;;;;;4.76;nan;101530.13;5033723;28;20037;-56
2022/03/11 02:16:13;;;;;;;14.55;10.52;;;;;;;4.97;nan;101582.38;5048487;28;20125;-58
2022/03/11 02:18:38;;;;;;;12.00;9.02;;;;;;;4.86;nan;101576.25;5053604;28;20040;-57
2022/03/11 02:21:04;;;;;;;11.65;8.95;;;;;;;5.02;nan;101608.47;5036677;28;20040;-58
2022/03/11 02:23:29;;;;;;;12.75;9.43;;;;;;;4.85;nan;101565.81;5071440;28;20114;-57
2022/03/11 02:25:55;;;;;;;13.75;9.77;;;;;;;4.60;nan;101517.94;5039684;28;20044;-56
2022/03/11 02:28:20;;;;;;;11.80;9.45;;;;;;;4.94;nan;101592.78;5075070;28;20032;-58
2022/03/11 02:30:45;;;;;;;13.00;9.00;;;;;;;4.92;nan;101594.53;5057167;28;20056;-58
2022/03/11 02:33:11;;;;;;;12.20;9.95;;;;;;;4.81;nan;101558.84;5074941;28;20040;-57
2022/03/11 02:35:36;;;;;;;13.93;9.77;;;;;;;4.91;nan;101564.09;5075059;28;20036;-58
2022/03/11 02:38:01;;;;;;;12.20;8.93;;;;;;;4.88;nan;101568.41;5074885;28;20079;-58
2022/03/11 02:40:27;;;;;;;12.85;9.60;;;;;;;4.85;nan;101563.19;5067683;28;20029;-57
2022/03/11 02:42:52;;;;;;;11.95;9.27;;;;;;;4.80;nan;101570.16;5054903;28;20037;-57
2022/03/11 02:45:17;;;;;;;12.10;9.20;;;;;;;4.83;nan;101565.81;5054745;28;20033;-56
2022/03/11 02:47:43;;;;;;;12.77;9.52;;;;;;;4.42;nan;101487.47;5054765;28;20161;-58
2022/03/11 02:50:09;;;;;;;14.25;10.40;;;;;;;4.70;nan;101560.56;5054831;28;20087;-57
2022/03/11 02:52:34;;;;;;;12.52;9.85;;;;;;;4.73;nan;101561.41;5054856;28;20033;-56
2022/03/11 02:55:00;;;;;;;12.38;10.05;;;;;;;4.72;nan;101562.31;5054611;28;20033;-58
2022/03/11 02:57:25;;;;;;;12.25;9.77;;;;;;;4.69;nan;101564.03;5054541;28;20043;-58
2022/03/11 02:59:50;;;;;;;12.57;9.80;;;;;;;4.62;nan;101542.28;5036585;28;20033;-58
2022/03/11 03:02:16;;;;;;;11.95;9.13;;;;;;;4.26;nan;101484.81;5036643;28;20124;-58
2022/03/11 03:04:41;;;;;;;12.38;9.77;;;;;;;4.65;nan;101552.72;5061752;28;20056;-58
2022/03/11 03:07:07;;;;;;;11.45;9.32;;;;;;;4.60;nan;101550.97;5074511;28;20078;-58
2022/03/11 03:09:32;;;;;;;12.30;9.80;;;;;;;4.19;nan;101483.03;5074533;28;20036;-55
2022/03/11 03:11:58;;;;;;;13.80;9.98;;;;;;;4.64;nan;101553.56;5074310;28;20490;-58
2022/03/11 03:14:23;;;;;;;12.20;9.57;;;;;;;4.57;nan;101546.59;5074189;28;20040;-56
2022/03/11 03:16:48;;;;;;;12.07;9.65;;;;;;;4.09;nan;101473.44;5056100;28;20036;-59
2022/03/11 03:19:14;;;;;;;13.60;9.65;;;;;;;4.12;nan;101479.53;5074006;28;20063;-57
2022/03/11 03:21:39;;;;;;;11.73;9.38;;;;;;;3.93;nan;101462.09;5074472;28;20064;-58
2022/03/11 03:24:06;;;;;;;14.15;10.07;;;;;;;4.33;nan;101533.47;5074004;28;20049;-56
2022/03/11 03:26:31;;;;;;;13.15;9.50;;;;;;;4.33;nan;101515.22;5074228;28;20036;-58
2022/03/11 03:28:56;;;;;;;12.98;9.23;;;;;;;4.14;nan;101500.41;5055892;28;20108;-56
2022/03/11 03:31:22;;;;;;;11.80;10.30;;;;;;;3.93;nan;101477.72;5073839;28;20503;-59
2022/03/11 03:33:48;;;;;;;12.73;9.88;;;;;;;4.06;nan;101522.94;5056184;28;20072;-56
2022/03/11 03:36:14;;;;;;;13.23;10.23;;;;;;;4.09;nan;101535.97;5073097;28;20036;-57
2022/03/11 03:38:39;;;;;;;15.27;10.68;;;;;;;3.70;nan;101469.81;5073927;28;20040;-58
2022/03/11 03:41:05;;;;;;;13.20;9.52;;;;;;;3.77;nan;101478.50;5062391;28;20472;-56
2022/03/11 03:43:30;;;;;;;11.57;9.82;;;;;;;3.63;nan;101455.00;5035969;28;20033;-58
2022/03/11 03:45:56;;;;;;;12.68;9.68;;;;;;;4.04;nan;101532.47;5053451;28;20037;-57
2022/03/11 03:48:21;;;;;;;12.05;9.98;;;;;;;4.02;nan;101527.28;5054106;28;20396;-56
2022/03/11 03:50:46;;;;;;;12.73;10.57;;;;;;;3.98;nan;101518.56;5053946;28;20033;-56
2022/03/11 03:53:12;;;;;;;14.32;10.90;;;;;;;3.86;nan;101505.47;5036003;28;20044;-55
2022/03/11 03:55:37;;;;;;;14.35;9.93;;;;;;;3.84;nan;101519.34;5068770;28;20093;-55
2022/03/11 03:58:02;;;;;;;13.65;10.40;;;;;;;3.48;nan;101444.50;5073375;28;20076;-56
2022/03/11 04:00:28;;;;;;;14.73;10.30;;;;;;;3.92;nan;101522.84;5073287;28;20066;-56
2022/03/11 04:02:53;;;;;;;13.45;10.25;;;;;;;3.56;nan;101444.56;5073427;28;20036;-58
2022/03/11 04:05:19;;;;;;;15.80;10.32;;;;;;;3.87;nan;101499.41;5073343;28;20025;-56
2022/03/11 04:07:45;;;;;;;14.23;10.63;;;;;;;3.89;nan;101488.97;5073253;28;20398;-56
2022/03/11 04:10:12;;;;;;;11.77;9.70;;;;;;;4.02;nan;101508.16;5055393;28;20103;-56
2022/03/11 04:12:38;;;;;;;13.07;10.10;;;;;;;4.10;nan;101499.50;5072064;28;20037;-57
2022/03/11 04:15:05;;;;;;;11.77;9.63;;;;;;;3.70;nan;101425.53;5055100;28;20038;-55
2022/03/11 04:17:30;;;;;;;13.35;9.88;;;;;;;4.15;nan;101495.19;5055373;28;20194;-59
2022/03/11 04:19:55;;;;;;;12.07;9.48;;;;;;;4.17;nan;101497.81;5073030;28;20115;-57
2022/03/11 04:22:21;;;;;;;15.80;9.45;;;;;;;3.80;nan;101423.84;5054923;28;20032;-54
2022/03/11 04:24:46;;;;;;;15.07;9.80;;;;;;;4.22;nan;101496.97;5072834;28;20123;-55
2022/03/11 04:27:12;;;;;;;14.15;9.95;;;;;;;3.82;nan;101428.19;5054936;28;20521;-57
2022/03/11 04:29:37;;;;;;;14.02;9.27;;;;;;;4.16;nan;101481.31;5054950;28;20557;-57
2022/03/11 04:32:03;;;;;;;13.82;10.32;;;;;;;4.08;nan;101458.69;5072854;28;20482;-56
2022/03/11 04:34:29;;;;;;;14.27;10.32;;;;;;;4.25;nan;101491.75;5054983;28;20487;-55
2022/03/11 04:36:56;;;;;;;14.68;9.77;;;;;;;4.17;nan;101476.97;5054904;28;20111;-58
2022/03/11 04:39:23;;;;;;;13.68;10.38;;;;;;;4.17;nan;101463.94;5072679;28;20043;-54
2022/03/11 04:41:49;;;;;;;14.13;10.15;;;;;;;3.81;nan;101418.66;5055163;28;20118;-58
2022/03/11 04:44:14;;;;;;;12.27;9.57;;;;;;;4.23;nan;101482.22;5056814;28;20056;-55
2022/03/11 04:46:40;;;;;;;13.63;9.98;;;;;;;4.18;nan;101476.09;5054817;28;20059;-57
2022/03/11 04:49:05;;;;;;;11.93;9.60;;;;;;;4.10;nan;101486.50;5072778;28;20115;-57
2022/03/11 04:51:30;;;;;;;15.20;9.55;;;;;;;3.64;nan;101407.28;5072446;28;20036;-55
2022/03/11 04:53:56;;;;;;;12.07;9.35;;;;;;;3.64;nan;101406.41;5072395;28;20107;-58
2022/03/11 04:56:21;;;;;;;14.63;10.38;;;;;;;4.07;nan;101480.38;5054465;28;20025;-56
2022/03/11 04:58:46;;;;;;;12.48;10.10;;;;;;;4.05;nan;101480.41;5072724;28;20462;-56
2022/03/11 05:01:12;;;;;;;12.82;9.32;;;;;;;3.59;nan;101405.53;5072578;28;20560;-57
2022/03/11 05:03:37;;;;;;;14.10;9.68;;;;;;;4.03;nan;101479.50;5072498;28;20123;-55
2022/03/11 05:06:02;;;;;;;14.60;9.73;;;;;;;3.36;nan;101366.34;5072082;28;20059;-56
2022/03/11 05:08:28;;;;;;;14.38;10.35;;;;;;;3.42;nan;101376.78;5072193;28;20391;-57
2022/03/11 05:10:53;;;;;;;19.13;10.32;;;;;;;3.95;nan;101469.06;5072064;28;20483;-56
2022/03/11 05:13:18;;;;;;;12.27;9.68;;;;;;;3.63;nan;101422.88;5072485;28;20035;-55
2022/03/11 05:15:44;;;;;;;14.52;10.25;;;;;;;3.65;nan;101429.00;5072112;28;20120;-57
2022/03/11 05:18:11;;;;;;;13.38;10.20;;;;;;;3.94;nan;101466.47;5072248;28;20545;-56
2022/03/11 05:20:37;;;;;;;14.30;10.20;;;;;;;3.87;nan;101470.75;5072166;28;20460;-55
2022/03/11 05:23:02;;;;;;;12.52;9.45;;;;;;;3.70;nan;101437.69;5071932;28;20067;-59
2022/03/11 05:25:28;;;;;;;14.60;9.43;;;;;;;3.85;nan;101479.44;5072007;28;20032;-57
2022/03/11 05:27:53;;;;;;;16.15;9.77;;;;;;;3.68;nan;101435.06;5071797;28;20578;-57
2022/03/11 05:30:19;;;;;;;14.95;9.02;;;;;;;3.39;nan;101384.59;5053886;28;20446;-57
2022/03/11 05:32:46;;;;;;;12.43;9.48;;;;;;;3.82;nan;101455.97;5037565;28;20047;-58
2022/03/11 05:35:12;;;;;;;12.30;9.25;;;;;;;3.76;nan;101472.44;5071795;28;20036;-58
2022/03/11 05:37:38;;;;;;;11.52;9.60;;;;;;;3.29;nan;101401.03;5070569;28;20124;-58
2022/03/11 05:40:04;;;;;;;12.15;9.40;;;;;;;3.14;nan;101385.31;5068990;28;22668;-54
2022/03/11 05:42:29;;;;;;;13.98;9.50;;;;;;;3.47;nan;101434.09;5051634;28;20043;-57
2022/03/11 05:44:55;;;;;;;12.98;9.88;;;;;;;3.15;nan;101392.28;5051517;28;20041;-57
2022/03/11 05:47:20;;;;;;;12.80;9.25;;;;;;;3.22;nan;101404.44;5051718;28;20507;-59
2022/03/11 05:49:45;;;;;;;15.23;10.45;;;;;;;3.46;nan;101451.44;5034009;28;20519;-55
2022/03/11 05:52:11;;;;;;;12.32;9.27;;;;;;;3.37;nan;101441.84;5050529;28;20045;-56
2022/03/11 05:54:36;;;;;;;12.40;8.98;;;;;;;3.46;nan;101458.38;5033928;28;20033;-56
2022/03/11 05:57:02;;;;;;;13.63;9.88;;;;;;;3.48;nan;101456.63;5033749;28;20049;-57
2022/03/11 05:59:29;;;;;;;12.55;9.45;;;;;;;3.15;nan;101411.31;5052316;28;20036;-54
2022/03/11 06:01:55;;;;;;;14.63;9.07;;;;;;;3.10;nan;101399.16;5054803;28;20369;-57
2022/03/11 06:04:20;;;;;;;12.45;9.88;;;;;;;3.46;nan;101456.63;5055877;28;20032;-59
2022/03/11 06:06:45;;;;;;;16.85;9.55;;;;;;;3.06;nan;101389.59;5055588;28;20171;-56
2022/03/11 06:09:11;;;;;;;12.48;9.63;;;;;;;3.49;nan;101453.19;5055567;28;20072;-58
2022/03/11 06:11:37;;;;;;;10.18;8.65;;;;;;;3.40;nan;101435.78;5021408;28;20036;-57
2022/03/11 06:14:03;;;;;;;12.88;9.02;;;;;;;3.19;nan;101400.09;5055356;28;20036;-58
2022/03/11 06:16:28;;;;;;;12.85;9.90;;;;;;;3.51;nan;101457.53;5054359;28;20460;-58
2022/03/11 06:18:54;;;;;;;13.15;9.57;;;;;;;3.51;nan;101449.72;5055418;28;20118;-58
2022/03/11 06:21:19;;;;;;;12.55;8.77;;;;;;;3.19;nan;101375.78;5055279;28;20099;-55
2022/03/11 06:23:44;;;;;;;14.07;9.73;;;;;;;3.12;nan;101374.91;5056119;28;20492;-58
2022/03/11 06:26:09;;;;;;;14.65;9.43;;;;;;;3.21;nan;101381.91;5075130;28;20033;-56
2022/03/11 06:28:35;;;;;;;13.90;9.05;;;;;;;3.54;nan;101426.31;5056927;28;20480;-59
2022/03/11 06:31:00;;;;;;;18.30;9.52;;;;;;;3.24;nan;101359.34;5075204;28;20055;-57
2022/03/11 06:33:25;;;;;;;14.30;9.73;;;;;;;3.74;nan;101432.50;5074980;28;20036;-56
2022/03/11 06:35:51;;;;;;;13.20;8.63;;;;;;;3.36;nan;101368.94;5074777;28;20108;-57
2022/03/11 06:38:16;;;;;;;12.40;9.50;;;;;;;3.41;nan;101364.66;5074890;28;20075;-57
2022/03/11 06:40:42;;;;;;;13.77;8.82;;;;;;;3.51;nan;101387.25;5066760;28;20037;-58
2022/03/11 06:43:07;;;;;;;18.95;10.10;;;;;;;3.92;nan;101431.69;5054613;28;20036;-56
2022/03/11 06:45:33;;;;;;;12.32;9.13;;;;;;;3.49;nan;101355.16;5053701;28;20036;-57
2022/03/11 06:47:58;;;;;;;14.57;9.15;;;;;;;4.07;nan;101433.50;5020534;28;20452;-56
2022/03/11 06:50:25;;;;;;;11.95;9.00;;;;;;;4.12;nan;101431.78;5054665;28;20047;-56
2022/03/11 06:52:50;;;;;;;10.77;8.65;;;;;;;4.27;nan;101447.47;5053569;28;20105;-57
2022/03/11 06:55:16;;;;;;;13.25;9.25;;;;;;;4.48;nan;101453.59;5036847;28;20052;-57
2022/03/11 06:57:42;;;;;;;14.65;9.10;;;;;;;4.74;nan;101437.13;5036402;28;20480;-56
2022/03/11 07:00:09;;;;;;;10.85;8.70;;;;;;;4.59;nan;101379.72;5053299;28;20048;-58
2022/03/11 07:02:36;;;;;;;14.43;9.77;;;;;;;4.53;nan;101365.84;5053563;28;20032;-57
2022/03/11 07:05:02;;;;;;;11.35;8.70;;;;;;;4.95;nan;101427.56;5053223;28;20048;-55
2022/03/11 07:07:30;;;;;;;14.20;9.38;;;;;;;4.97;nan;101415.38;5036717;28;20503;-59
2022/03/11 07:09:55;;;;;;;12.10;9.38;;;;;;;5.03;nan;101409.28;5054180;28;20110;-56
2022/03/11 07:12:20;;;;;;;11.07;8.48;;;;;;;5.08;nan;101418.84;5035205;28;20069;-58
2022/03/11 07:14:48;;;;;;;13.23;9.27;;;;;;;4.89;nan;101374.53;5068070;28;20032;-57
2022/03/11 07:17:14;;;;;;;13.02;9.30;;;;;;;5.27;nan;101432.75;5074236;28;20129;-57
2022/03/11 07:19:39;;;;;;;13.10;9.30;;;;;;;5.49;nan;101420.53;5056223;28;20064;-57
2022/03/11 07:22:05;;;;;;;11.07;8.60;;;;;;;5.64;nan;101418.75;5074125;28;20407;-57
2022/03/11 07:24:30;;;;;;;15.02;9.20;;;;;;;6.10;nan;101429.91;5073886;28;20052;-54
2022/03/11 07:26:56;;;;;;;10.10;8.57;;;;;;;6.47;nan;101432.34;5073862;28;20078;-58
2022/03/11 07:29:21;;;;;;;11.85;8.88;;;;;;;6.79;nan;101438.22;5073786;28;20542;-56
2022/03/11 07:31:47;;;;;;;13.77;9.30;;;;;;;7.26;nan;101419.50;5074089;28;20075;-56
2022/03/11 07:34:12;;;;;;;10.25;8.70;;;;;;;7.61;nan;101413.91;5073946;28;20040;-57
2022/03/11 07:36:38;;;;;;;13.82;9.07;;;;;;;7.98;nan;101415.19;5073715;28;20082;-56
2022/03/11 07:39:05;;;;;;;11.57;9.52;;;;;;;8.28;nan;101416.56;5055857;28;20040;-57
2022/03/11 07:41:30;;;;;;;15.02;8.50;;;;;;;8.55;nan;101420.56;5041116;28;20500;-55
2022/03/11 07:43:56;;;;;;;12.85;9.45;;;;;;;8.22;nan;101356.31;5035900;28;20041;-57
2022/03/11 07:46:23;;;;;;;12.75;9.02;;;;;;;8.56;nan;101352.31;5052581;28;20082;-58
2022/03/11 07:48:49;;;;;;;14.43;9.98;;;;;;;8.95;nan;101367.41;5053785;28;20395;-55
2022/03/11 07:51:14;;;;;;;11.68;9.50;;;;;;;9.86;nan;101415.59;5053741;28;20048;-56
2022/03/11 07:53:39;;;;;;;11.98;8.88;;;;;;;10.14;nan;101345.75;5035827;28;20037;-57
2022/03/11 07:56:06;;;;;;;13.35;9.70;;;;;;;10.59;nan;101403.50;5053312;28;20257;-54
2022/03/11 07:58:32;;;;;;;11.98;8.52;;;;;;;10.55;nan;101386.91;5053662;28;20037;-57
2022/03/11 08:00:57;;;;;;;13.10;8.60;;;;;;;10.82;nan;101421.38;5053259;28;20514;-56
2022/03/11 08:03:22;;;;;;;11.70;8.45;;;;;;;10.30;nan;101329.63;5040477;28;20041;-58
2022/03/11 08:05:48;;;;;;;13.50;9.00;;;;;;;10.85;nan;101401.09;5072036;28;20040;-56
2022/03/11 08:08:14;;;;;;;11.07;9.50;;;;;;;10.95;nan;101388.56;5055209;28;20037;-56
2022/03/11 08:10:39;;;;;;;15.05;9.55;;;;;;;10.93;nan;101348.22;5072749;28;20036;-58
2022/03/11 08:13:08;;;;;;;11.18;9.23;;;;;;;11.45;nan;101398.66;5055294;28;20032;-57
2022/03/11 08:15:35;;;;;;;13.00;9.02;;;;;;;11.40;nan;101378.59;5067826;28;20060;-57
2022/03/11 08:18:01;;;;;;;10.25;8.93;;;;;;;11.19;nan;101314.16;5072646;28;20036;-57
2022/03/11 08:20:26;;;;;;;11.45;8.70;;;;;;;11.91;nan;101390.34;5072927;28;20075;-57
2022/03/11 08:22:51;;;;;;;11.27;9.25;;;;;;;12.15;nan;101372.91;5072266;28;20483;-57
2022/03/11 08:25:18;;;;;;;12.50;9.10;;;;;;;12.62;nan;101389.91;5072429;28;20499;-56
2022/03/11 08:27:45;;;;;;;12.73;8.52;;;;;;;13.14;nan;101373.22;5071997;28;20082;-55
2022/03/11 08:30:11;;;;;;;12.10;8.93;;;;;;;13.53;nan;101379.78;5072664;28;20029;-53
2022/03/11 08:32:38;;;;;;;14.30;9.63;;;;;;;13.35;nan;101314.31;5072247;28;20037;-52
2022/03/11 08:35:04;;;;;;;12.38;9.23;;;;;;;13.43;nan;101312.25;5071414;28;20434;-53
2022/03/11 08:37:30;;;;;;;12.52;9.60;;;;;;;13.71;nan;101363.25;5072582;28;20115;-49
2022/03/11 08:39:55;;;;;;;12.13;8.95;;;;;;;13.45;nan;101303.38;5071103;28;20119;-49
2022/03/11 08:42:21;;;;;;;9.73;8.68;;;;;;;14.08;nan;101365.34;5054983;28;20061;-51
2022/03/11 08:44:46;;;;;;;16.33;10.05;;;;;;;14.08;nan;101370.66;5072692;28;20476;-49
2022/03/11 08:47:12;;;;;;;15.05;9.85;;;;;;;14.00;nan;101314.50;5072253;28;20024;-52
2022/03/11 08:49:38;;;;;;;14.02;9.43;;;;;;;14.28;nan;101365.44;5072271;28;20036;-50
2022/03/11 08:52:04;;;;;;;14.73;9.50;;;;;;;14.53;nan;101365.38;5072121;28;20063;-50
2022/03/11 08:54:29;;;;;;;10.43;9.07;;;;;;;14.51;nan;101356.59;5072056;28;20064;-52
2022/03/11 08:56:55;;;;;;;10.02;8.93;;;;;;;14.67;nan;101355.06;5072395;28;20047;-50
2022/03/11 08:59:21;;;;;;;10.73;8.93;;;;;;;14.79;nan;101349.28;5072591;28;20049;-48
2022/03/11 09:01:47;;;;;;;11.70;9.10;;;;;;;15.16;nan;101353.88;5071142;28;20035;-52
2022/03/11 09:04:12;;;;;;;9.60;8.60;;;;;;;15.40;nan;101297.09;5054415;28;20090;-52
2022/03/11 09:06:38;;;;;;;13.65;10.05;;;;;;;15.99;nan;101338.66;5072221;28;20056;-50
2022/03/11 09:09:04;;;;;;;12.93;8.73;;;;;;;16.37;nan;101335.03;5072257;28;20420;-50
2022/03/11 09:11:31;;;;;;;12.63;9.10;;;;;;;16.31;nan;101344.13;5072374;28;20069;-52
2022/03/11 09:13:56;;;;;;;18.63;9.30;;;;;;;15.49;nan;101262.25;5072149;28;20137;-54
2022/03/11 09:16:22;;;;;;;12.70;9.57;;;;;;;15.98;nan;101299.75;5072234;28;20279;-49
2022/03/11 09:18:47;;;;;;;11.25;9.00;;;;;;;16.48;nan;101331.84;5071829;28;20040;-52
2022/03/11 09:21:13;;;;;;;13.80;9.20;;;;;;;16.96;nan;101331.25;5054073;28;20491;-50
2022/03/11 09:23:39;;;;;;;12.32;8.93;;;;;;;16.97;nan;101314.34;5071986;28;20044;-53
2022/03/11 09:26:04;;;;;;;11.02;8.55;;;;;;;16.54;nan;101299.69;5072179;28;20064;-52
2022/03/11 09:28:31;;;;;;;12.52;9.45;;;;;;;16.33;nan;101261.72;5072102;28;20032;-50
2022/03/11 09:30:57;;;;;;;12.05;9.07;;;;;;;16.81;nan;101325.75;5054202;28;20043;-51
2022/03/11 09:33:22;;;;;;;16.23;9.88;;;;;;;16.15;nan;101246.69;5072013;28;20032;-50
2022/03/11 09:35:47;;;;;;;14.25;9.43;;;;;;;16.64;nan;101312.44;5071178;28;20071;-50
2022/03/11 09:38:13;;;;;;;11.15;9.13;;;;;;;16.76;nan;101305.66;5071565;28;20476;-52
2022/03/11 09:40:42;;;;;;;10.35;8.45;;;;;;;17.17;nan;101243.19;5064353;28;20021;-50
2022/03/11 09:43:10;;;;;;;17.88;10.23;;;;;;;17.80;nan;101297.47;5023843;28;20080;-51
2022/03/11 09:45:36;;;;;;;11.70;9.40;;;;;;;17.77;nan;101300.31;5053954;28;20053;-53
2022/03/11 09:48:01;;;;;;;12.48;9.48;;;;;;;17.73;nan;101280.09;5071742;28;20070;-53
2022/03/11 09:50:27;;;;;;;18.27;9.98;;;;;;;17.96;nan;101305.44;5070444;28;20032;-54
2022/03/11 09:52:55;;;;;;;9.07;8.18;;;;;;;18.54;nan;101295.91;5070368;28;20044;-51
2022/03/11 09:55:20;;;;;;;12.32;8.52;;;;;;;18.04;nan;101241.13;5054066;28;20033;-51
2022/03/11 09:57:45;;;;;;;12.23;9.35;;;;;;;18.47;nan;101235.88;5071857;28;20052;-52
2022/03/11 10:00:11;;;;;;;11.23;9.27;;;;;;;18.72;nan;101285.97;5071817;28;20141;-53
2022/03/11 10:02:36;;;;;;;13.55;9.60;;;;;;;18.87;nan;101292.22;5071827;28;20028;-53
2022/03/11 10:05:02;;;;;;;11.80;9.43;;;;;;;18.76;nan;101276.00;5071536;28;20392;-49
2022/03/11 10:07:29;;;;;;;11.13;9.63;;;;;;;18.95;nan;101257.91;5071811;28;20075;-52
2022/03/11 10:09:56;;;;;;;14.23;9.20;;;;;;;19.17;nan;101193.44;5070541;28;20040;-55
2022/03/11 10:12:25;;;;;;;10.73;8.88;;;;;;;19.34;nan;101268.84;5071698;28;20048;-53
2022/03/11 10:15:04;;;;;;;12.68;9.32;;;;;;;19.27;nan;101258.63;5070380;28;20041;-55
2022/03/11 10:17:37;;;;;;;11.82;9.10;;;;;;;19.04;nan;101258.22;5071374;28;20032;-51
2022/03/11 10:20:10;;;;;;;9.95;8.93;;;;;;;18.77;nan;101243.00;5071574;28;20035;-53
2022/03/11 10:22:37;;;;;;;11.35;9.23;;;;;;;19.08;nan;101261.56;5071538;28;20040;-54
2022/03/11 10:25:13;;;;;;;11.55;9.40;;;;;;;19.21;nan;101262.53;5071553;28;20032;-55
2022/03/11 10:28:04;;;;;;;10.65;9.55;;;;;;;19.03;nan;101221.81;5071578;28;20464;-53
2022/03/11 10:30:30;;;;;;;;;;;;;;;20.23;nan;101263.09;5054575;28;20395;-57
2022/03/11 10:32:58;;;;;;;11.85;9.43;;;;;;;20.21;nan;101274.84;5053411;28;19951;-54
2022/03/11 10:35:49;;;;;;;10.57;8.82;;;;;;;20.15;nan;101254.72;5070194;28;20040;-52
2022/03/11 10:38:17;;;;;;;15.18;9.30;;;;;;;19.48;nan;101236.84;5067298;28;20080;-52
2022/03/11 10:40:54;;;;;;;9.80;8.73;;;;;;;20.16;nan;101243.09;5063164;28;20040;-50
2022/03/11 10:43:21;;;;;;;10.57;9.10;;;;;;;20.02;nan;101199.53;5033973;28;20072;-54
2022/03/11 10:45:49;;;;;;;11.23;9.20;;;;;;;19.71;nan;101234.50;5052627;28;20119;-51
2022/03/11 10:48:16;;;;;;;10.50;9.23;;;;;;;20.23;nan;101188.25;5054889;28;20032;-55
2022/03/11 10:50:42;;;;;;;13.05;9.18;;;;;;;20.73;nan;101219.63;5036859;28;20036;-51
2022/03/11 10:53:09;;;;;;;13.82;9.60;;;;;;;20.56;nan;101181.63;5054424;28;20468;-54
2022/03/11 10:55:38;;;;;;;11.80;9.18;;;;;;;20.47;nan;101175.06;5036724;28;20129;-54
2022/03/11 10:58:05;;;;;;;12.32;9.52;;;;;;;20.36;nan;101174.09;5037194;28;20114;-50
2022/03/11 11:00:35;;;;;;;14.50;10.15;;;;;;;20.78;nan;101222.84;5053055;28;20051;-52
2022/03/11 11:03:05;;;;;;;11.38;9.27;;;;;;;20.66;nan;101178.22;5053476;28;20408;-54
2022/03/11 11:05:31;;;;;;;15.45;9.63;;;;;;;21.38;nan;101227.59;5053423;28;20082;-52
2022/03/11 11:07:57;;;;;;;11.35;9.18;;;;;;;21.86;nan;101220.53;5018744;28;20052;-51
2022/03/11 11:10:25;;;;;;;11.13;9.75;;;;;;;20.93;nan;101139.81;5052926;28;20064;-50
2022/03/11 11:12:51;;;;;;;9.98;8.82;;;;;;;21.29;nan;101221.06;5052891;28;20040;-55
2022/03/11 11:15:17;;;;;;;10.32;9.30;;;;;;;21.19;nan;101165.63;5064774;28;20033;-53
2022/03/11 11:17:44;;;;;;;13.02;9.70;;;;;;;21.35;nan;101198.34;5072706;28;20476;-57
2022/03/11 11:20:23;;;;;;;11.13;9.38;;;;;;;21.91;nan;101183.53;5072563;28;20055;-54
2022/03/11 11:22:52;;;;;;;17.02;9.85;;;;;;;22.21;nan;101165.16;5072800;28;20162;-54
2022/03/11 11:25:19;;;;;;;12.77;9.63;;;;;;;22.27;nan;101148.59;5072998;28;20145;-55
2022/03/11 11:27:46;;;;;;;12.68;9.52;;;;;;;22.69;nan;101189.22;5072887;28;20063;-55
2022/03/11 11:30:12;;;;;;;12.77;9.85;;;;;;;22.50;nan;101175.50;5071266;28;20044;-53
2022/03/11 11:32:40;;;;;;;11.43;9.38;;;;;;;22.27;nan;101185.31;5066042;28;20086;-57